sensor_id;sensor_type;location;lat;lon;timestamp;pressure;altitude;pressure_sealevel;temperature;humidity
31088;BME280;17745;55.914;37.554;2023-02-03T00:01:12;98352.56;;;3.40;56.05
31088;BME280;17745;55.914;37.554;2023-02-03T00:03:48;98347.13;;;3.41;56.06
31088;BME280;17745;55.914;37.554;2023-02-03T00:06:17;98351.53;;;3.41;55.93
31088;BME280;17745;55.914;37.554;2023-02-03T00:08:47;98351.78;;;3.39;56.07
31088;BME280;17745;55.914;37.554;2023-02-03T00:11:23;98357.00;;;3.39;56.17
31088;BME280;17745;55.914;37.554;2023-02-03T00:13:51;98352.34;;;3.41;56.19
31088;BME280;17745;55.914;37.554;2023-02-03T00:16:19;98352.09;;;3.43;56.10
31088;BME280;17745;55.914;37.554;2023-02-03T00:18:46;98349.59;;;3.36;56.00
31088;BME280;17745;55.914;37.554;2023-02-03T00:21:14;98355.16;;;3.28;56.16
31088;BME280;17745;55.914;37.554;2023-02-03T00:23:44;98349.00;;;3.22;56.26
31088;BME280;17745;55.914;37.554;2023-02-03T00:26:16;98356.53;;;3.19;56.25
31088;BME280;17745;55.914;37.554;2023-02-03T00:28:44;98356.94;;;3.15;56.39
31088;BME280;17745;55.914;37.554;2023-02-03T00:31:16;98353.19;;;3.11;56.29
31088;BME280;17745;55.914;37.554;2023-02-03T00:33:45;98352.06;;;3.07;56.37
31088;BME280;17745;55.914;37.554;2023-02-03T00:36:13;98358.31;;;3.06;56.45
31088;BME280;17745;55.914;37.554;2023-02-03T00:38:40;98355.34;;;3.03;56.52
31088;BME280;17745;55.914;37.554;2023-02-03T00:41:10;98354.75;;;3.00;56.60
31088;BME280;17745;55.914;37.554;2023-02-03T00:43:37;98352.97;;;3.01;56.61
31088;BME280;17745;55.914;37.554;2023-02-03T00:46:05;98358.75;;;3.03;56.49
31088;BME280;17745;55.914;37.554;2023-02-03T00:48:32;98356.72;;;3.05;56.46
31088;BME280;17745;55.914;37.554;2023-02-03T00:51:00;98352.88;;;3.08;56.43
31088;BME280;17745;55.914;37.554;2023-02-03T00:53:27;98352.63;;;3.09;56.41
31088;BME280;17745;55.914;37.554;2023-02-03T00:55:55;98353.00;;;3.13;56.29
31088;BME280;17745;55.914;37.554;2023-02-03T00:58:24;98349.91;;;3.16;56.40
31088;BME280;17745;55.914;37.554;2023-02-03T01:00:53;98353.91;;;3.19;56.41
31088;BME280;17745;55.914;37.554;2023-02-03T01:03:21;98347.87;;;3.18;56.33
31088;BME280;17745;55.914;37.554;2023-02-03T01:05:48;98344.47;;;3.18;56.39
31088;BME280;17745;55.914;37.554;2023-02-03T01:08:16;98350.50;;;3.18;56.48
31088;BME280;17745;55.914;37.554;2023-02-03T01:10:43;98349.09;;;3.15;56.39
31088;BME280;17745;55.914;37.554;2023-02-03T01:13:11;98341.72;;;3.12;56.46
31088;BME280;17745;55.914;37.554;2023-02-03T01:15:45;98337.75;;;3.10;56.64
31088;BME280;17745;55.914;37.554;2023-02-03T01:18:14;98338.19;;;3.07;56.67
31088;BME280;17745;55.914;37.554;2023-02-03T01:20:43;98330.94;;;3.09;56.66
31088;BME280;17745;55.914;37.554;2023-02-03T01:23:10;98331.13;;;3.07;56.66
31088;BME280;17745;55.914;37.554;2023-02-03T01:25:38;98332.16;;;3.06;56.80
31088;BME280;17745;55.914;37.554;2023-02-03T01:28:06;98329.44;;;3.01;56.86
31088;BME280;17745;55.914;37.554;2023-02-03T01:30:34;98333.06;;;3.00;56.73
31088;BME280;17745;55.914;37.554;2023-02-03T01:33:04;98339.44;;;3.04;56.79
31088;BME280;17745;55.914;37.554;2023-02-03T01:35:33;98338.97;;;3.07;56.81
31088;BME280;17745;55.914;37.554;2023-02-03T01:38:01;98334.78;;;3.06;56.85
31088;BME280;17745;55.914;37.554;2023-02-03T01:40:30;98338.78;;;3.09;56.86
31088;BME280;17745;55.914;37.554;2023-02-03T01:42:59;98340.37;;;3.10;56.75
31088;BME280;17745;55.914;37.554;2023-02-03T01:45:26;98336.38;;;3.07;56.78
31088;BME280;17745;55.914;37.554;2023-02-03T01:47:54;98333.75;;;3.07;56.87
31088;BME280;17745;55.914;37.554;2023-02-03T01:50:29;98334.97;;;3.05;56.88
31088;BME280;17745;55.914;37.554;2023-02-03T01:53:01;98335.78;;;3.05;57.06
31088;BME280;17745;55.914;37.554;2023-02-03T01:55:32;98342.62;;;3.06;56.98
31088;BME280;17745;55.914;37.554;2023-02-03T01:58:03;98336.81;;;3.04;57.02
31088;BME280;17745;55.914;37.554;2023-02-03T02:00:31;98331.34;;;3.06;57.15
31088;BME280;17745;55.914;37.554;2023-02-03T02:03:01;98324.53;;;3.05;57.16
31088;BME280;17745;55.914;37.554;2023-02-03T02:05:34;98324.31;;;3.06;57.27
31088;BME280;17745;55.914;37.554;2023-02-03T02:08:03;98331.69;;;3.09;57.36
31088;BME280;17745;55.914;37.554;2023-02-03T02:10:32;98328.88;;;3.11;57.27
31088;BME280;17745;55.914;37.554;2023-02-03T02:13:01;98325.81;;;3.14;57.21
31088;BME280;17745;55.914;37.554;2023-02-03T02:15:39;98321.16;;;3.16;57.09
31088;BME280;17745;55.914;37.554;2023-02-03T02:18:31;98330.38;;;3.19;57.10
31088;BME280;17745;55.914;37.554;2023-02-03T02:28:01;98317.06;;;3.20;57.21
31088;BME280;17745;55.914;37.554;2023-02-03T02:30:44;98326.72;;;3.20;57.19
31088;BME280;17745;55.914;37.554;2023-02-03T02:33:25;98319.22;;;3.23;57.20
31088;BME280;17745;55.914;37.554;2023-02-03T02:36:04;98322.63;;;3.24;57.25
31088;BME280;17745;55.914;37.554;2023-02-03T02:38:43;98319.78;;;3.25;57.17
31088;BME280;17745;55.914;37.554;2023-02-03T02:41:17;98319.22;;;3.23;57.18
31088;BME280;17745;55.914;37.554;2023-02-03T02:43:49;98318.66;;;3.21;57.25
31088;BME280;17745;55.914;37.554;2023-02-03T02:46:26;98318.31;;;3.18;57.25
31088;BME280;17745;55.914;37.554;2023-02-03T02:49:01;98312.28;;;3.17;57.34
31088;BME280;17745;55.914;37.554;2023-02-03T02:51:32;98313.31;;;3.16;57.49
31088;BME280;17745;55.914;37.554;2023-02-03T02:54:03;98320.34;;;3.15;57.46
31088;BME280;17745;55.914;37.554;2023-02-03T02:56:35;98320.69;;;3.19;57.52
31088;BME280;17745;55.914;37.554;2023-02-03T02:59:03;98316.37;;;3.25;57.46
31088;BME280;17745;55.914;37.554;2023-02-03T03:01:32;98320.69;;;3.31;57.34
31088;BME280;17745;55.914;37.554;2023-02-03T03:04:04;98319.69;;;3.32;57.34
31088;BME280;17745;55.914;37.554;2023-02-03T03:06:36;98322.28;;;3.32;57.45
31088;BME280;17745;55.914;37.554;2023-02-03T03:09:06;98316.94;;;3.27;57.50
31088;BME280;17745;55.914;37.554;2023-02-03T03:11:41;98323.19;;;3.26;57.46
31088;BME280;17745;55.914;37.554;2023-02-03T03:14:11;98321.72;;;3.30;57.41
31088;BME280;17745;55.914;37.554;2023-02-03T03:16:42;98319.91;;;3.31;57.39
31088;BME280;17745;55.914;37.554;2023-02-03T03:19:18;98325.16;;;3.31;57.46
31088;BME280;17745;55.914;37.554;2023-02-03T03:21:52;98319.47;;;3.34;57.54
31088;BME280;17745;55.914;37.554;2023-02-03T03:24:24;98323.44;;;3.36;57.51
31088;BME280;17745;55.914;37.554;2023-02-03T03:26:59;98319.00;;;3.37;57.54
31088;BME280;17745;55.914;37.554;2023-02-03T03:29:30;98324.91;;;3.32;57.62
31088;BME280;17745;55.914;37.554;2023-02-03T03:32:01;98316.94;;;3.27;57.79
31088;BME280;17745;55.914;37.554;2023-02-03T03:34:31;98325.59;;;3.27;57.95
31088;BME280;17745;55.914;37.554;2023-02-03T03:37:02;98326.75;;;3.32;57.83
31088;BME280;17745;55.914;37.554;2023-02-03T03:39:38;98321.63;;;3.37;57.76
31088;BME280;17745;55.914;37.554;2023-02-03T03:42:13;98324.34;;;3.42;57.66
31088;BME280;17745;55.914;37.554;2023-02-03T03:44:49;98319.47;;;3.46;57.67
31088;BME280;17745;55.914;37.554;2023-02-03T03:47:25;98319.25;;;3.47;57.74
31088;BME280;17745;55.914;37.554;2023-02-03T03:49:58;98314.91;;;3.53;57.65
31088;BME280;17745;55.914;37.554;2023-02-03T03:52:34;98318.44;;;3.58;57.63
31088;BME280;17745;55.914;37.554;2023-02-03T03:55:07;98330.28;;;3.61;57.49
31088;BME280;17745;55.914;37.554;2023-02-03T03:57:38;98325.81;;;3.62;57.44
31088;BME280;17745;55.914;37.554;2023-02-03T04:00:09;98322.44;;;3.61;57.54
31088;BME280;17745;55.914;37.554;2023-02-03T04:02:42;98317.41;;;3.60;57.67
31088;BME280;17745;55.914;37.554;2023-02-03T04:05:13;98323.66;;;3.58;57.74
31088;BME280;17745;55.914;37.554;2023-02-03T04:07:42;98325.16;;;3.66;57.67
31088;BME280;17745;55.914;37.554;2023-02-03T04:10:17;98323.66;;;3.70;57.60
31088;BME280;17745;55.914;37.554;2023-02-03T04:12:48;98326.97;;;3.78;57.63
31088;BME280;17745;55.914;37.554;2023-02-03T04:15:16;98330.16;;;3.80;57.57
31088;BME280;17745;55.914;37.554;2023-02-03T04:17:44;98325.16;;;3.78;57.69
31088;BME280;17745;55.914;37.554;2023-02-03T04:20:15;98318.09;;;3.79;57.69
31088;BME280;17745;55.914;37.554;2023-02-03T04:22:45;98329.13;;;3.81;57.79
31088;BME280;17745;55.914;37.554;2023-02-03T04:25:13;98325.94;;;3.79;57.87
31088;BME280;17745;55.914;37.554;2023-02-03T04:27:41;98317.84;;;3.80;57.93
31088;BME280;17745;55.914;37.554;2023-02-03T04:30:10;98322.16;;;3.86;57.95
31088;BME280;17745;55.914;37.554;2023-02-03T04:32:38;98328.31;;;3.92;57.82
31088;BME280;17745;55.914;37.554;2023-02-03T04:35:07;98333.53;;;3.92;57.91
31088;BME280;17745;55.914;37.554;2023-02-03T04:37:36;98335.12;;;3.93;57.77
31088;BME280;17745;55.914;37.554;2023-02-03T04:40:05;98324.19;;;3.96;57.70
31088;BME280;17745;55.914;37.554;2023-02-03T04:42:35;98334.66;;;3.96;57.61
31088;BME280;17745;55.914;37.554;2023-02-03T04:45:04;98337.53;;;3.95;57.65
31088;BME280;17745;55.914;37.554;2023-02-03T04:47:32;98335.94;;;3.94;57.81
31088;BME280;17745;55.914;37.554;2023-02-03T04:50:00;98337.88;;;3.98;57.86
31088;BME280;17745;55.914;37.554;2023-02-03T04:52:29;98339.00;;;4.03;57.74
31088;BME280;17745;55.914;37.554;2023-02-03T04:54:58;98341.72;;;4.08;57.78
31088;BME280;17745;55.914;37.554;2023-02-03T04:57:25;98330.00;;;4.10;57.60
31088;BME280;17745;55.914;37.554;2023-02-03T04:59:53;98331.81;;;4.10;57.68
31088;BME280;17745;55.914;37.554;2023-02-03T05:02:22;98332.50;;;4.05;57.77
31088;BME280;17745;55.914;37.554;2023-02-03T05:04:50;98337.72;;;4.05;57.93
31088;BME280;17745;55.914;37.554;2023-02-03T05:07:17;98334.91;;;4.07;57.99
31088;BME280;17745;55.914;37.554;2023-02-03T05:09:46;98321.25;;;4.05;57.83
31088;BME280;17745;55.914;37.554;2023-02-03T05:12:15;98336.94;;;4.05;57.79
31088;BME280;17745;55.914;37.554;2023-02-03T05:14:43;98332.50;;;4.05;57.80
31088;BME280;17745;55.914;37.554;2023-02-03T05:17:11;98335.59;;;4.02;57.89
31088;BME280;17745;55.914;37.554;2023-02-03T05:19:39;98329.78;;;4.00;58.00
31088;BME280;17745;55.914;37.554;2023-02-03T05:22:07;98327.81;;;4.07;57.99
31088;BME280;17745;55.914;37.554;2023-02-03T05:24:35;98332.63;;;4.10;57.84
31088;BME280;17745;55.914;37.554;2023-02-03T05:27:02;98324.75;;;4.10;57.77
31088;BME280;17745;55.914;37.554;2023-02-03T05:29:31;98325.53;;;4.11;57.77
31088;BME280;17745;55.914;37.554;2023-02-03T05:31:59;98330.88;;;4.16;57.86
31088;BME280;17745;55.914;37.554;2023-02-03T05:34:27;98321.22;;;4.17;57.77
31088;BME280;17745;55.914;37.554;2023-02-03T05:36:54;98330.44;;;4.19;57.71
31088;BME280;17745;55.914;37.554;2023-02-03T05:39:22;98333.16;;;4.24;57.71
31088;BME280;17745;55.914;37.554;2023-02-03T05:41:50;98330.06;;;4.27;57.66
31088;BME280;17745;55.914;37.554;2023-02-03T05:44:20;98333.03;;;4.31;57.60
31088;BME280;17745;55.914;37.554;2023-02-03T05:46:52;98330.72;;;4.35;57.57
31088;BME280;17745;55.914;37.554;2023-02-03T05:49:20;98337.00;;;4.34;57.67
31088;BME280;17745;55.914;37.554;2023-02-03T05:51:50;98336.44;;;4.32;57.78
31088;BME280;17745;55.914;37.554;2023-02-03T05:54:21;98326.19;;;4.30;57.70
31088;BME280;17745;55.914;37.554;2023-02-03T05:56:49;98324.72;;;4.22;57.85
31088;BME280;17745;55.914;37.554;2023-02-03T05:59:19;98330.44;;;4.19;57.94
31088;BME280;17745;55.914;37.554;2023-02-03T06:01:50;98336.12;;;4.16;57.83
31088;BME280;17745;55.914;37.554;2023-02-03T06:04:18;98336.38;;;4.14;57.98
31088;BME280;17745;55.914;37.554;2023-02-03T06:06:45;98326.19;;;4.18;58.02
31088;BME280;17745;55.914;37.554;2023-02-03T06:09:13;98330.75;;;4.23;57.86
31088;BME280;17745;55.914;37.554;2023-02-03T06:11:45;98331.09;;;4.26;57.72
31088;BME280;17745;55.914;37.554;2023-02-03T06:14:15;98338.87;;;4.21;57.54
31088;BME280;17745;55.914;37.554;2023-02-03T06:16:43;98333.97;;;4.13;57.78
31088;BME280;17745;55.914;37.554;2023-02-03T06:19:12;98342.53;;;4.08;57.93
31088;BME280;17745;55.914;37.554;2023-02-03T06:21:39;98345.72;;;4.10;57.91
31088;BME280;17745;55.914;37.554;2023-02-03T06:24:09;98340.78;;;4.14;57.79
31088;BME280;17745;55.914;37.554;2023-02-03T06:26:37;98347.16;;;4.18;57.82
31088;BME280;17745;55.914;37.554;2023-02-03T06:29:05;98351.41;;;4.19;57.83
31088;BME280;17745;55.914;37.554;2023-02-03T06:31:33;98342.34;;;4.27;57.79
31088;BME280;17745;55.914;37.554;2023-02-03T06:34:01;98349.41;;;4.38;57.65
31088;BME280;17745;55.914;37.554;2023-02-03T06:36:30;98343.56;;;4.48;57.55
31088;BME280;17745;55.914;37.554;2023-02-03T06:38:57;98345.91;;;4.62;57.31
31088;BME280;17745;55.914;37.554;2023-02-03T06:41:25;98347.03;;;4.66;57.23
31088;BME280;17745;55.914;37.554;2023-02-03T06:43:57;98348.97;;;4.70;57.05
31088;BME280;17745;55.914;37.554;2023-02-03T06:46:25;98347.44;;;4.75;56.91
31088;BME280;17745;55.914;37.554;2023-02-03T06:48:54;98341.03;;;4.82;56.96
31088;BME280;17745;55.914;37.554;2023-02-03T06:51:22;98353.84;;;4.96;56.77
31088;BME280;17745;55.914;37.554;2023-02-03T06:53:52;98358.84;;;4.97;56.50
31088;BME280;17745;55.914;37.554;2023-02-03T06:56:22;98347.94;;;4.89;56.61
31088;BME280;17745;55.914;37.554;2023-02-03T06:58:56;98348.91;;;4.82;56.63
31088;BME280;17745;55.914;37.554;2023-02-03T07:01:24;98341.34;;;4.86;56.58
31088;BME280;17745;55.914;37.554;2023-02-03T07:03:52;98346.69;;;4.91;56.34
31088;BME280;17745;55.914;37.554;2023-02-03T07:06:22;98350.75;;;4.99;56.28
31088;BME280;17745;55.914;37.554;2023-02-03T07:08:58;98342.50;;;5.07;56.25
31088;BME280;17745;55.914;37.554;2023-02-03T07:11:26;98345.28;;;5.18;55.96
31088;BME280;17745;55.914;37.554;2023-02-03T07:13:55;98335.44;;;5.25;55.89
31088;BME280;17745;55.914;37.554;2023-02-03T07:16:23;98342.91;;;5.33;55.63
31088;BME280;17745;55.914;37.554;2023-02-03T07:18:53;98341.16;;;5.39;55.77
31088;BME280;17745;55.914;37.554;2023-02-03T07:21:22;98335.59;;;5.52;55.67
31088;BME280;17745;55.914;37.554;2023-02-03T07:23:50;98331.66;;;5.72;55.50
31088;BME280;17745;55.914;37.554;2023-02-03T07:26:20;98339.44;;;5.84;55.10
31088;BME280;17745;55.914;37.554;2023-02-03T07:28:51;98347.97;;;5.96;55.10
31088;BME280;17745;55.914;37.554;2023-02-03T07:31:19;98333.97;;;6.08;55.19
31088;BME280;17745;55.914;37.554;2023-02-03T07:33:47;98346.84;;;6.09;55.18
31088;BME280;17745;55.914;37.554;2023-02-03T07:36:16;98340.00;;;6.08;55.14
31088;BME280;17745;55.914;37.554;2023-02-03T07:38:43;98336.66;;;6.13;55.23
31088;BME280;17745;55.914;37.554;2023-02-03T07:41:11;98332.19;;;6.36;55.02
31088;BME280;17745;55.914;37.554;2023-02-03T07:43:43;98331.41;;;6.63;54.79
31088;BME280;17745;55.914;37.554;2023-02-03T07:46:11;98328.50;;;6.86;54.46
31088;BME280;17745;55.914;37.554;2023-02-03T07:48:39;98330.78;;;7.05;54.32
31088;BME280;17745;55.914;37.554;2023-02-03T07:51:06;98317.37;;;7.12;54.30
31088;BME280;17745;55.914;37.554;2023-02-03T07:53:34;98326.63;;;7.14;53.92
31088;BME280;17745;55.914;37.554;2023-02-03T07:56:04;98326.38;;;7.16;53.73
31088;BME280;17745;55.914;37.554;2023-02-03T07:58:31;98334.56;;;7.20;53.63
31088;BME280;17745;55.914;37.554;2023-02-03T08:01:00;98329.81;;;7.17;53.38
31088;BME280;17745;55.914;37.554;2023-02-03T08:03:28;98327.38;;;7.10;53.24
31088;BME280;17745;55.914;37.554;2023-02-03T08:05:56;98322.38;;;7.08;53.35
31088;BME280;17745;55.914;37.554;2023-02-03T08:08:24;98327.13;;;7.11;53.11
31088;BME280;17745;55.914;37.554;2023-02-03T08:10:54;98332.44;;;7.17;52.93
31088;BME280;17745;55.914;37.554;2023-02-03T08:13:22;98324.81;;;7.15;52.72
31088;BME280;17745;55.914;37.554;2023-02-03T08:15:53;98323.47;;;7.12;52.88
31088;BME280;17745;55.914;37.554;2023-02-03T08:18:23;98321.03;;;7.06;52.74
31088;BME280;17745;55.914;37.554;2023-02-03T08:20:50;98325.41;;;6.95;52.72
31088;BME280;17745;55.914;37.554;2023-02-03T08:23:18;98319.59;;;6.93;52.80
31088;BME280;17745;55.914;37.554;2023-02-03T08:25:49;98323.63;;;7.00;52.86
31088;BME280;17745;55.914;37.554;2023-02-03T08:28:17;98321.59;;;7.13;52.54
31088;BME280;17745;55.914;37.554;2023-02-03T08:30:44;98320.03;;;7.12;52.29
31088;BME280;17745;55.914;37.554;2023-02-03T08:33:12;98320.81;;;7.12;52.55
31088;BME280;17745;55.914;37.554;2023-02-03T08:35:44;98311.34;;;7.11;52.47
31088;BME280;17745;55.914;37.554;2023-02-03T08:38:12;98313.44;;;7.09;52.30
31088;BME280;17745;55.914;37.554;2023-02-03T08:40:39;98312.38;;;7.10;52.31
31088;BME280;17745;55.914;37.554;2023-02-03T08:43:07;98313.47;;;7.14;51.93
31088;BME280;17745;55.914;37.554;2023-02-03T08:45:35;98308.72;;;7.11;51.64
31088;BME280;17745;55.914;37.554;2023-02-03T08:48:02;98317.84;;;7.04;51.70
31088;BME280;17745;55.914;37.554;2023-02-03T08:50:30;98310.50;;;7.06;51.75
31088;BME280;17745;55.914;37.554;2023-02-03T08:52:59;98311.91;;;7.19;51.56
31088;BME280;17745;55.914;37.554;2023-02-03T08:55:27;98308.53;;;7.23;51.13
31088;BME280;17745;55.914;37.554;2023-02-03T08:57:55;98310.59;;;7.16;50.85
31088;BME280;17745;55.914;37.554;2023-02-03T09:00:23;98309.00;;;7.15;51.14
31088;BME280;17745;55.914;37.554;2023-02-03T09:02:50;98308.72;;;7.11;50.88
31088;BME280;17745;55.914;37.554;2023-02-03T09:05:18;98311.78;;;7.03;51.06
31088;BME280;17745;55.914;37.554;2023-02-03T09:07:46;98308.34;;;6.97;50.83
31088;BME280;17745;55.914;37.554;2023-02-03T09:10:15;98314.53;;;6.86;50.98
31088;BME280;17745;55.914;37.554;2023-02-03T09:12:44;98316.25;;;6.70;51.20
31088;BME280;17745;55.914;37.554;2023-02-03T09:15:17;98308.16;;;6.49;51.17
31088;BME280;17745;55.914;37.554;2023-02-03T09:17:48;98314.34;;;6.38;51.38
31088;BME280;17745;55.914;37.554;2023-02-03T09:20:19;98309.75;;;6.28;51.41
31088;BME280;17745;55.914;37.554;2023-02-03T09:22:47;98320.72;;;6.20;51.65
31088;BME280;17745;55.914;37.554;2023-02-03T09:25:16;98315.78;;;6.23;51.78
31088;BME280;17745;55.914;37.554;2023-02-03T09:27:44;98317.03;;;6.21;51.83
31088;BME280;17745;55.914;37.554;2023-02-03T09:30:13;98316.13;;;6.10;52.03
31088;BME280;17745;55.914;37.554;2023-02-03T09:32:41;98311.28;;;6.01;52.25
31088;BME280;17745;55.914;37.554;2023-02-03T09:35:21;98313.06;;;5.96;52.38
31088;BME280;17745;55.914;37.554;2023-02-03T09:37:52;98310.16;;;5.97;52.51
31088;BME280;17745;55.914;37.554;2023-02-03T09:40:27;98305.66;;;5.93;52.40
31088;BME280;17745;55.914;37.554;2023-02-03T09:43:11;98299.53;;;5.87;52.64
31088;BME280;17745;55.914;37.554;2023-02-03T09:45:43;98306.78;;;5.80;52.87
31088;BME280;17745;55.914;37.554;2023-02-03T09:48:13;98309.84;;;5.71;52.89
31088;BME280;17745;55.914;37.554;2023-02-03T09:50:45;98306.84;;;5.63;53.12
31088;BME280;17745;55.914;37.554;2023-02-03T09:53:25;98308.91;;;5.61;53.27
31088;BME280;17745;55.914;37.554;2023-02-03T09:56:12;98307.94;;;5.67;53.24
31088;BME280;17745;55.914;37.554;2023-02-03T09:58:45;98304.03;;;5.69;53.33
31088;BME280;17745;55.914;37.554;2023-02-03T10:01:16;98305.84;;;5.69;53.38
31088;BME280;17745;55.914;37.554;2023-02-03T10:03:52;98305.41;;;5.72;53.47
31088;BME280;17745;55.914;37.554;2023-02-03T10:06:35;98309.34;;;5.75;53.43
31088;BME280;17745;55.914;37.554;2023-02-03T10:09:37;98302.50;;;5.73;53.54
31088;BME280;17745;55.914;37.554;2023-02-03T10:12:35;98318.31;;;5.79;53.73
31088;BME280;17745;55.914;37.554;2023-02-03T10:15:23;98318.03;;;5.97;53.80
31088;BME280;17745;55.914;37.554;2023-02-03T10:18:01;98309.87;;;6.16;53.74
31088;BME280;17745;55.914;37.554;2023-02-03T10:20:42;98307.06;;;6.45;53.46
31088;BME280;17745;55.914;37.554;2023-02-03T10:23:14;98301.50;;;6.69;53.37
31088;BME280;17745;55.914;37.554;2023-02-03T10:25:52;98303.78;;;6.87;52.95
31088;BME280;17745;55.914;37.554;2023-02-03T10:28:28;98299.41;;;6.98;52.89
31088;BME280;17745;55.914;37.554;2023-02-03T10:31:00;98298.69;;;7.08;52.82
31088;BME280;17745;55.914;37.554;2023-02-03T10:33:35;98299.22;;;7.10;52.60
31088;BME280;17745;55.914;37.554;2023-02-03T10:36:09;98297.31;;;7.00;52.75
31088;BME280;17745;55.914;37.554;2023-02-03T10:38:47;98303.25;;;6.85;53.02
31088;BME280;17745;55.914;37.554;2023-02-03T10:41:21;98293.34;;;6.70;53.24
31088;BME280;17745;55.914;37.554;2023-02-03T10:43:52;98297.44;;;6.56;53.25
31088;BME280;17745;55.914;37.554;2023-02-03T10:46:26;98298.12;;;6.46;53.37
31088;BME280;17745;55.914;37.554;2023-02-03T10:48:55;98295.19;;;6.42;53.40
31088;BME280;17745;55.914;37.554;2023-02-03T10:51:26;98294.97;;;6.44;53.35
31088;BME280;17745;55.914;37.554;2023-02-03T10:53:56;98293.03;;;6.34;53.41
31088;BME280;17745;55.914;37.554;2023-02-03T10:56:26;98295.16;;;6.37;53.64
31088;BME280;17745;55.914;37.554;2023-02-03T10:59:28;98289.44;;;6.46;53.62
31088;BME280;17745;55.914;37.554;2023-02-03T11:01:57;98288.50;;;6.57;53.34
31088;BME280;17745;55.914;37.554;2023-02-03T11:04:27;98287.72;;;6.56;53.31
31088;BME280;17745;55.914;37.554;2023-02-03T11:06:57;98289.28;;;6.57;53.35
31088;BME280;17745;55.914;37.554;2023-02-03T11:09:32;98286.13;;;6.55;53.27
31088;BME280;17745;55.914;37.554;2023-02-03T11:12:11;98279.19;;;6.44;53.36
31088;BME280;17745;55.914;37.554;2023-02-03T11:14:46;98278.34;;;6.38;53.45
31088;BME280;17745;55.914;37.554;2023-02-03T11:17:20;98280.78;;;6.45;53.44
31088;BME280;17745;55.914;37.554;2023-02-03T11:20:03;98279.50;;;6.53;53.25
31088;BME280;17745;55.914;37.554;2023-02-03T11:22:36;98285.63;;;6.58;53.15
31088;BME280;17745;55.914;37.554;2023-02-03T11:25:19;98273.34;;;6.69;53.14
31088;BME280;17745;55.914;37.554;2023-02-03T11:27:54;98275.28;;;6.79;52.89
31088;BME280;17745;55.914;37.554;2023-02-03T11:30:27;98271.41;;;6.87;52.57
31088;BME280;17745;55.914;37.554;2023-02-03T11:33:00;98272.22;;;6.87;52.71
31088;BME280;17745;55.914;37.554;2023-02-03T11:35:35;98272.72;;;6.84;52.75
31088;BME280;17745;55.914;37.554;2023-02-03T11:38:28;98271.06;;;6.78;52.77
31088;BME280;17745;55.914;37.554;2023-02-03T11:40:59;98274.12;;;6.65;52.80
31088;BME280;17745;55.914;37.554;2023-02-03T11:43:32;98274.22;;;6.48;52.90
31088;BME280;17745;55.914;37.554;2023-02-03T11:46:05;98274.41;;;6.41;53.05
31088;BME280;17745;55.914;37.554;2023-02-03T11:48:40;98272.56;;;6.41;53.08
31088;BME280;17745;55.914;37.554;2023-02-03T11:51:25;98274.50;;;6.51;53.03
31088;BME280;17745;55.914;37.554;2023-02-03T11:54:15;98267.47;;;6.57;52.84
31088;BME280;17745;55.914;37.554;2023-02-03T11:57:15;98274.50;;;6.51;52.76
31088;BME280;17745;55.914;37.554;2023-02-03T12:00:11;98270.00;;;6.47;52.77
31088;BME280;17745;55.914;37.554;2023-02-03T12:09:35;98266.09;;;6.49;52.60
31088;BME280;17745;55.914;37.554;2023-02-03T12:12:25;98266.22;;;6.65;52.28
31088;BME280;17745;55.914;37.554;2023-02-03T12:15:20;98263.87;;;6.68;52.30
31088;BME280;17745;55.914;37.554;2023-02-03T12:18:07;98264.53;;;6.81;52.26
31088;BME280;17745;55.914;37.554;2023-02-03T12:21:13;98263.78;;;6.85;52.16
31088;BME280;17745;55.914;37.554;2023-02-03T12:24:01;98253.19;;;6.80;52.12
31088;BME280;17745;55.914;37.554;2023-02-03T12:26:45;98260.28;;;6.75;52.29
31088;BME280;17745;55.914;37.554;2023-02-03T12:29:19;98265.75;;;6.73;52.14
31088;BME280;17745;55.914;37.554;2023-02-03T12:32:03;98251.53;;;6.69;52.12
31088;BME280;17745;55.914;37.554;2023-02-03T12:35:03;98259.09;;;6.60;52.23
31088;BME280;17745;55.914;37.554;2023-02-03T12:37:47;98268.09;;;6.42;52.56
31088;BME280;17745;55.914;37.554;2023-02-03T12:40:27;98256.44;;;6.33;52.71
31088;BME280;17745;55.914;37.554;2023-02-03T12:43:20;98258.22;;;6.27;52.77
31088;BME280;17745;55.914;37.554;2023-02-03T12:46:00;98250.78;;;6.19;52.89
31088;BME280;17745;55.914;37.554;2023-02-03T12:48:36;98260.22;;;6.14;53.05
31088;BME280;17745;55.914;37.554;2023-02-03T12:51:12;98259.94;;;6.16;53.01
31088;BME280;17745;55.914;37.554;2023-02-03T12:53:50;98259.72;;;6.18;53.00
31088;BME280;17745;55.914;37.554;2023-02-03T12:56:35;98260.50;;;6.18;52.87
31088;BME280;17745;55.914;37.554;2023-02-03T12:59:24;98264.66;;;6.14;52.93
31088;BME280;17745;55.914;37.554;2023-02-03T13:02:27;98252.75;;;6.06;52.94
31088;BME280;17745;55.914;37.554;2023-02-03T13:05:14;98259.75;;;6.00;53.04
31088;BME280;17745;55.914;37.554;2023-02-03T13:08:06;98257.06;;;5.95;53.01
31088;BME280;17745;55.914;37.554;2023-02-03T13:10:46;98254.22;;;5.97;53.05
31088;BME280;17745;55.914;37.554;2023-02-03T13:13:33;98258.97;;;6.00;52.96
31088;BME280;17745;55.914;37.554;2023-02-03T13:16:07;98255.66;;;6.05;52.95
31088;BME280;17745;55.914;37.554;2023-02-03T13:18:53;98261.94;;;6.04;52.86
31088;BME280;17745;55.914;37.554;2023-02-03T13:21:39;98256.34;;;6.00;53.05
31088;BME280;17745;55.914;37.554;2023-02-03T13:24:15;98256.69;;;5.86;53.03
31088;BME280;17745;55.914;37.554;2023-02-03T13:27:09;98257.63;;;5.75;53.16
31088;BME280;17745;55.914;37.554;2023-02-03T13:29:54;98258.34;;;5.70;53.39
31088;BME280;17745;55.914;37.554;2023-02-03T13:35:49;98254.53;;;5.61;53.49
31088;BME280;17745;55.914;37.554;2023-02-03T13:38:32;98251.91;;;5.61;53.47
31088;BME280;17745;55.914;37.554;2023-02-03T13:41:15;98246.31;;;5.52;53.24
31088;BME280;17745;55.914;37.554;2023-02-03T13:43:54;98252.03;;;5.49;53.46
31088;BME280;17745;55.914;37.554;2023-02-03T13:46:34;98248.25;;;5.40;53.55